Time;durP1;ratioP1;P1;durP2;ratioP2;P2;SDS_P1;SDS_P2;PMS_P1;PMS_P2;Temp;Humidity;BMP_temperature;BMP_pressure;BME280_temperature;BME280_humidity;BME280_pressure;Samples;Min_cycle;Max_cycle;Signal;HPM_P1;HPM_P2
2021/06/24 00:02:05;;;;;;;16.50;6.75;;;;;;;16.99;98.45;93550.30;1833300;78;21035;-80
2021/06/24 00:04:32;;;;;;;23.18;6.62;;;;;;;17.02;98.32;93550.81;1833642;78;21100;-80
2021/06/24 00:06:58;;;;;;;20.55;7.67;;;;;;;17.05;98.04;93554.07;1832797;78;21107;-80
2021/06/24 00:09:25;;;;;;;14.07;7.00;;;;;;;17.07;97.56;93546.16;1833146;78;21086;-80
2021/06/24 00:11:51;;;;;;;16.55;6.90;;;;;;;17.05;97.21;93544.45;1832827;78;21014;-79
2021/06/24 00:14:18;;;;;;;17.82;6.67;;;;;;;17.05;96.87;93543.09;1834256;78;21038;-80
2021/06/24 00:16:46;;;;;;;20.90;6.28;;;;;;;17.02;96.59;93543.94;1832906;78;21614;-79
2021/06/24 00:19:14;;;;;;;20.08;6.92;;;;;;;17.02;96.43;93540.43;1832577;78;21631;-80
2021/06/24 00:21:42;;;;;;;20.72;7.50;;;;;;;16.94;96.38;93547.48;1832020;78;21310;-78
2021/06/24 00:24:08;;;;;;;14.05;5.97;;;;;;;16.89;96.88;93546.64;1832331;78;21421;-79
2021/06/24 00:26:35;;;;;;;13.35;5.60;;;;;;;16.85;96.85;93548.71;1832849;78;21078;-79
2021/06/24 00:29:01;;;;;;;13.38;6.45;;;;;;;16.71;97.34;93547.67;1832943;78;21628;-78
2021/06/24 00:31:28;;;;;;;12.70;6.15;;;;;;;16.51;98.57;93545.80;1833472;78;21204;-78
2021/06/24 00:33:55;;;;;;;17.42;6.20;;;;;;;16.34;99.92;93544.25;1834385;78;21018;-79
2021/06/24 00:36:21;;;;;;;15.48;6.00;;;;;;;16.27;100.00;93540.30;1832790;78;21030;-79
2021/06/24 00:38:48;;;;;;;16.65;6.47;;;;;;;16.26;100.00;93525.81;1833595;78;21046;-78
2021/06/24 00:41:17;;;;;;;15.43;6.50;;;;;;;16.23;100.00;93534.12;1833641;78;21018;-78
2021/06/24 00:43:44;;;;;;;18.42;7.67;;;;;;;16.23;100.00;93526.66;1831221;78;21188;-78
2021/06/24 00:46:11;;;;;;;20.90;8.55;;;;;;;16.29;100.00;93523.42;1832015;78;21241;-79
2021/06/24 00:48:38;;;;;;;21.20;8.70;;;;;;;16.33;100.00;93519.39;1833796;78;21018;-78
2021/06/24 00:51:04;;;;;;;16.27;8.10;;;;;;;16.37;100.00;93522.05;1833873;78;21022;-78
2021/06/24 00:53:32;;;;;;;12.63;7.78;;;;;;;16.37;99.96;93521.45;1833778;78;21030;-78
2021/06/24 00:55:59;;;;;;;15.63;8.08;;;;;;;16.36;100.00;93525.97;1833563;78;21116;-79
2021/06/24 00:58:35;;;;;;;11.78;8.03;;;;;;;16.32;100.00;93530.77;1807020;77;21100;-78
2021/06/24 01:01:03;;;;;;;18.67;8.15;;;;;;;16.29;100.00;93529.69;1833077;78;21018;-78
2021/06/24 01:03:30;;;;;;;13.80;7.95;;;;;;;16.27;100.00;93539.70;1833296;78;21516;-79
2021/06/24 01:05:57;;;;;;;12.25;6.90;;;;;;;16.24;100.00;93551.52;1834082;78;21006;-79
2021/06/24 01:08:28;;;;;;;13.18;8.03;;;;;;;16.24;100.00;93549.38;1832745;78;21090;-78
2021/06/24 01:10:55;;;;;;;16.57;7.72;;;;;;;16.22;100.00;93547.08;1834801;78;21509;-78
2021/06/24 01:13:23;;;;;;;15.93;9.18;;;;;;;16.23;100.00;93540.98;1837123;78;20995;-77
2021/06/24 01:15:49;;;;;;;11.88;6.90;;;;;;;16.21;100.00;93540.05;1837454;78;20995;-77
2021/06/24 01:18:16;;;;;;;21.55;7.17;;;;;;;16.20;100.00;93536.34;1835480;78;21006;-78
2021/06/24 01:20:44;;;;;;;9.98;7.35;;;;;;;16.20;100.00;93529.48;1833944;78;21108;-78
2021/06/24 01:23:14;;;;;;;17.15;8.08;;;;;;;16.21;100.00;93528.28;1833828;78;21050;-78
2021/06/24 01:25:42;;;;;;;14.68;7.03;;;;;;;16.23;100.00;93532.15;1833577;78;20998;-78
2021/06/24 01:28:09;;;;;;;17.12;7.10;;;;;;;16.25;100.00;93535.86;1834480;78;21022;-78
2021/06/24 01:30:39;;;;;;;12.30;7.60;;;;;;;16.24;100.00;93537.80;1834838;78;21021;-78
2021/06/24 01:33:06;;;;;;;15.98;7.42;;;;;;;16.22;100.00;93541.59;1833118;77;21059;-78
2021/06/24 01:35:33;;;;;;;11.73;6.53;;;;;;;16.20;100.00;93543.98;1834853;78;21572;-78
2021/06/24 01:38:03;;;;;;;10.15;6.15;;;;;;;16.18;100.00;93541.51;1831875;77;21200;-78
2021/06/24 01:40:31;;;;;;;15.10;6.65;;;;;;;16.14;100.00;93547.08;1832348;77;21026;-78
2021/06/24 01:42:57;;;;;;;12.73;5.80;;;;;;;16.11;100.00;93552.04;1833439;78;21018;-78
2021/06/24 01:45:24;;;;;;;13.70;5.30;;;;;;;16.05;99.63;93550.22;1834160;78;21793;-78
2021/06/24 01:47:51;;;;;;;9.30;5.00;;;;;;;15.93;99.85;93551.66;1835047;78;21045;-78
2021/06/24 01:50:18;;;;;;;11.33;6.35;;;;;;;15.81;100.00;93552.33;1834629;78;21521;-78
2021/06/24 01:52:47;;;;;;;10.08;4.35;;;;;;;15.69;100.00;93553.77;1834354;78;21026;-78
2021/06/24 01:55:15;;;;;;;16.70;5.87;;;;;;;15.60;100.00;93550.17;1808504;78;21038;-78
2021/06/24 01:57:46;;;;;;;12.65;5.80;;;;;;;15.57;100.00;93551.05;1833896;77;21501;-79
2021/06/24 02:00:18;;;;;;;10.80;5.47;;;;;;;15.59;100.00;93545.13;1771708;79;21328;-79
2021/06/24 02:02:45;;;;;;;14.60;5.70;;;;;;;15.62;100.00;93538.80;1774146;78;21025;-79
2021/06/24 02:05:14;;;;;;;10.82;5.40;;;;;;;15.64;100.00;93544.63;1833134;78;21021;-78
2021/06/24 02:07:44;;;;;;;11.55;4.95;;;;;;;15.70;100.00;93548.45;1833322;78;21332;-79
2021/06/24 02:10:12;;;;;;;10.15;5.33;;;;;;;15.77;100.00;93547.69;1830581;78;21132;-79
2021/06/24 02:12:41;;;;;;;12.55;5.47;;;;;;;15.83;100.00;93545.20;1830374;78;21365;-79
2021/06/24 02:15:10;;;;;;;11.22;6.47;;;;;;;15.87;100.00;93550.61;1830949;78;21026;-79
2021/06/24 02:17:36;;;;;;;12.63;6.78;;;;;;;15.89;100.00;93557.23;1833385;77;21081;-79
2021/06/24 02:20:11;;;;;;;18.05;7.83;;;;;;;15.90;100.00;93552.52;1833154;78;21085;-80
2021/06/24 02:22:43;;;;;;;13.93;7.33;;;;;;;15.90;100.00;93552.52;1829705;78;21099;-79
2021/06/24 02:25:14;;;;;;;17.00;7.40;;;;;;;15.94;100.00;93553.97;1833476;78;21084;-79
2021/06/24 02:27:48;;;;;;;18.77;6.92;;;;;;;15.95;100.00;93557.51;1832271;78;21034;-79
2021/06/24 02:30:26;;;;;;;14.53;6.45;;;;;;;15.90;100.00;93553.88;1830387;78;21569;-80
2021/06/24 02:32:54;;;;;;;12.93;6.35;;;;;;;15.90;100.00;93553.28;1834186;78;21556;-79
2021/06/24 02:35:24;;;;;;;11.55;6.05;;;;;;;15.89;100.00;93551.74;1834027;77;21098;-81
2021/06/24 02:37:55;;;;;;;16.12;6.85;;;;;;;15.89;100.00;93544.12;1785800;77;21479;-80
2021/06/24 02:40:24;;;;;;;9.30;5.95;;;;;;;15.85;100.00;93555.77;1798965;79;21098;-79
2021/06/24 02:42:50;;;;;;;13.45;6.17;;;;;;;15.80;100.00;93558.42;1825386;78;21050;-79
2021/06/24 02:45:17;;;;;;;12.82;6.53;;;;;;;15.75;100.00;93558.30;1833128;78;21034;-80
2021/06/24 02:47:45;;;;;;;18.00;6.55;;;;;;;15.71;100.00;93561.72;1833238;78;21099;-79
2021/06/24 02:50:13;;;;;;;15.48;7.03;;;;;;;15.66;100.00;93558.11;1745893;81;21580;-81
2021/06/24 02:52:40;;;;;;;12.82;6.35;;;;;;;15.65;100.00;93557.95;1772673;78;21525;-80
2021/06/24 02:55:15;;;;;;;13.70;5.53;;;;;;;15.63;100.00;93564.41;1833690;78;21444;-80
2021/06/24 02:57:46;;;;;;;12.50;5.92;;;;;;;15.60;100.00;93570.73;1834958;77;21520;-80
2021/06/24 03:00:14;;;;;;;14.55;7.67;;;;;;;15.58;100.00;93573.73;1833784;78;21073;-79
2021/06/24 03:02:42;;;;;;;13.38;5.65;;;;;;;15.58;100.00;93580.59;1808785;77;21026;-78
2021/06/24 03:05:10;;;;;;;11.40;6.03;;;;;;;15.57;100.00;93577.08;1807963;78;21076;-80
2021/06/24 03:07:37;;;;;;;11.75;6.30;;;;;;;15.60;100.00;93580.32;1834535;77;21061;-79
2021/06/24 03:10:24;;;;;;;;;;;;;;;15.59;100.00;93571.94;1837177;78;21010;-79
2021/06/24 03:12:51;;;;;;;11.30;6.28;;;;;;;15.58;100.00;93576.48;1834285;78;21192;-80
2021/06/24 03:15:23;;;;;;;12.10;5.92;;;;;;;15.58;100.00;93578.62;1834106;77;21034;-79
2021/06/24 03:17:54;;;;;;;11.50;6.07;;;;;;;15.57;100.00;93578.45;1835622;78;21046;-79
2021/06/24 03:20:22;;;;;;;14.73;6.50;;;;;;;15.57;100.00;93576.28;1834078;77;21077;-79
2021/06/24 03:22:52;;;;;;;12.07;6.75;;;;;;;15.55;100.00;93578.09;1835597;78;21476;-79
2021/06/24 03:25:17;;;;;;;12.55;6.55;;;;;;;15.57;100.00;93581.19;1811517;78;21284;-78
2021/06/24 03:27:44;;;;;;;7.28;6.25;;;;;;;15.61;100.00;93590.69;1812711;78;21054;-79
2021/06/24 03:30:16;;;;;;;9.03;5.37;;;;;;;15.59;100.00;93578.02;1835325;78;21002;-78
2021/06/24 03:32:43;;;;;;;12.80;7.30;;;;;;;15.58;100.00;93575.87;1835872;78;21046;-78
2021/06/24 03:35:10;;;;;;;11.20;6.83;;;;;;;15.61;100.00;93577.78;1834365;78;21085;-80
2021/06/24 03:37:38;;;;;;;11.88;6.05;;;;;;;15.66;100.00;93573.79;1834031;78;21803;-79
2021/06/24 03:40:07;;;;;;;9.60;4.87;;;;;;;15.71;100.00;93565.83;1834624;78;21003;-79
2021/06/24 03:42:34;;;;;;;7.55;5.15;;;;;;;15.68;100.00;93559.84;1834049;78;21093;-79
2021/06/24 03:45:03;;;;;;;11.20;4.78;;;;;;;15.61;100.00;93556.42;1834765;77;21026;-79
2021/06/24 03:47:31;;;;;;;12.68;6.17;;;;;;;15.49;100.00;93553.13;1808918;78;21078;-79
2021/06/24 03:49:58;;;;;;;12.70;6.08;;;;;;;15.42;100.00;93555.24;1835245;77;21108;-79
2021/06/24 03:52:25;;;;;;;13.60;6.40;;;;;;;15.38;100.00;93551.81;1833817;78;21599;-79
2021/06/24 03:54:52;;;;;;;11.50;6.00;;;;;;;15.41;100.00;93557.22;1834178;78;21026;-79
2021/06/24 03:57:18;;;;;;;14.05;5.40;;;;;;;15.49;100.00;93560.58;1834299;78;21018;-79
2021/06/24 03:59:52;;;;;;;11.77;5.63;;;;;;;15.62;100.00;93562.10;1832334;77;21073;-79
2021/06/24 04:02:22;;;;;;;8.78;5.05;;;;;;;15.77;100.00;93563.38;1834068;78;21126;-78
2021/06/24 04:04:52;;;;;;;13.25;4.97;;;;;;;15.92;100.00;93547.39;1782944;77;21077;-79
2021/06/24 04:07:20;;;;;;;10.25;5.92;;;;;;;16.03;100.00;93545.17;1833873;78;21058;-79
2021/06/24 04:09:48;;;;;;;12.95;5.50;;;;;;;16.14;100.00;93536.70;1781193;77;21019;-78
2021/06/24 04:12:16;;;;;;;10.50;6.05;;;;;;;16.23;100.00;93538.24;1834795;78;21031;-79
2021/06/24 04:14:45;;;;;;;13.15;6.10;;;;;;;16.31;100.00;93541.59;1831842;78;21115;-80
2021/06/24 04:17:18;;;;;;;13.70;6.83;;;;;;;16.40;100.00;93545.29;1832020;78;21359;-79
2021/06/24 04:19:45;;;;;;;17.95;7.62;;;;;;;16.57;100.00;93537.80;1835194;77;21549;-79
2021/06/24 04:22:14;;;;;;;14.47;6.50;;;;;;;16.81;100.00;93539.77;1834812;77;21007;-80
2021/06/24 04:24:56;;;;;;;11.63;5.78;;;;;;;17.01;100.00;93541.64;1804552;78;21054;-81
2021/06/24 04:27:23;;;;;;;13.58;6.62;;;;;;;17.13;99.37;93532.06;1807051;78;21418;-81
2021/06/24 04:29:49;;;;;;;9.53;6.03;;;;;;;17.24;98.00;93533.92;1833461;78;21545;-82
2021/06/24 04:32:18;;;;;;;11.80;6.00;;;;;;;17.34;97.07;93529.92;1832919;78;21050;-79
2021/06/24 04:34:46;;;;;;;16.30;7.28;;;;;;;17.39;96.86;93530.17;1832566;78;21030;-79
2021/06/24 04:37:14;;;;;;;21.65;8.30;;;;;;;17.45;96.91;93524.31;1832108;78;21030;-81
2021/06/24 04:39:41;;;;;;;13.35;6.80;;;;;;;17.52;97.14;93524.70;1833161;78;21073;-80
2021/06/24 04:42:08;;;;;;;18.67;7.35;;;;;;;17.57;97.04;93520.05;1831879;78;21077;-80
2021/06/24 04:44:37;;;;;;;14.50;7.10;;;;;;;17.61;96.75;93525.45;1831758;78;21626;-80
2021/06/24 04:47:04;;;;;;;15.98;6.92;;;;;;;17.63;96.66;93522.41;1800006;79;21109;-80
2021/06/24 04:49:32;;;;;;;18.82;6.62;;;;;;;17.67;96.90;93528.57;1823415;78;21103;-79
2021/06/24 04:52:09;;;;;;;19.45;7.90;;;;;;;17.77;97.14;93524.61;1830641;78;21098;-81
2021/06/24 04:54:52;;;;;;;31.82;12.53;;;;;;;17.86;96.92;93530.22;1826740;78;22380;-79
2021/06/24 04:57:36;;;;;;;14.00;7.50;;;;;;;17.98;96.66;93521.23;1832828;77;21069;-79
2021/06/24 05:00:10;;;;;;;16.40;7.50;;;;;;;18.11;96.59;93521.98;1759862;77;21582;-80
2021/06/24 05:02:58;;;;;;;19.57;7.42;;;;;;;18.35;96.04;93530.66;1793526;77;21097;-81
2021/06/24 05:05:27;;;;;;;14.98;6.37;;;;;;;18.61;94.81;93527.27;1811161;77;21535;-79
2021/06/24 05:08:05;;;;;;;14.55;6.45;;;;;;;18.82;93.56;93530.56;1725593;80;21050;-79
2021/06/24 05:10:37;;;;;;;12.50;6.22;;;;;;;18.95;92.90;93530.52;1780754;78;21014;-78
2021/06/24 05:13:35;;;;;;;13.88;6.60;;;;;;;19.06;92.09;93526.17;1834292;77;21146;-81
2021/06/24 05:16:08;;;;;;;13.60;5.80;;;;;;;19.20;91.24;93530.43;1806201;78;21054;-81
2021/06/24 05:18:38;;;;;;;11.43;5.22;;;;;;;19.46;90.44;93526.95;1832507;78;21010;-81
2021/06/24 05:21:06;;;;;;;9.53;5.92;;;;;;;19.74;89.32;93527.91;1832663;78;21014;-82
2021/06/24 05:23:33;;;;;;;11.12;5.55;;;;;;;20.02;88.48;93530.21;1832607;78;21049;-80
2021/06/24 05:26:01;;;;;;;13.78;5.33;;;;;;;20.21;87.14;93524.77;1820214;76;21026;-82
2021/06/24 05:28:28;;;;;;;17.12;5.47;;;;;;;20.33;86.47;93525.27;1784331;76;21623;-82
2021/06/24 05:30:54;;;;;;;11.57;5.37;;;;;;;20.42;86.52;93528.05;1828545;76;21064;-81
2021/06/24 05:33:22;;;;;;;13.78;5.12;;;;;;;20.50;85.69;93519.69;1800643;78;21058;-82
2021/06/24 05:35:49;;;;;;;20.57;6.22;;;;;;;20.61;85.75;93518.64;1785199;78;21060;-79
2021/06/24 05:38:16;;;;;;;14.78;6.25;;;;;;;20.80;85.73;93513.16;1837942;78;21022;-78
2021/06/24 05:40:45;;;;;;;13.32;5.37;;;;;;;21.04;84.41;93514.70;1835615;77;21009;-81
2021/06/24 05:43:13;;;;;;;14.23;6.08;;;;;;;21.31;82.98;93513.94;1835783;77;21431;-82
2021/06/24 05:45:39;;;;;;;20.52;6.62;;;;;;;21.52;81.89;93522.71;1818155;78;21084;-84
2021/06/24 05:48:06;;;;;;;33.20;8.23;;;;;;;21.66;81.37;93524.06;1815542;76;20985;-83
2021/06/24 05:50:33;;;;;;;18.85;6.55;;;;;;;21.75;81.21;93518.52;1794780;78;21432;-83
2021/06/24 05:53:07;;;;;;;17.62;7.47;;;;;;;21.82;81.03;93522.35;1783523;78;21107;-82
2021/06/24 05:58:25;;;;;;;17.52;6.10;;;;;;;21.98;79.82;93529.53;1810106;76;21030;-81
2021/06/24 06:00:54;;;;;;;15.70;7.37;;;;;;;22.07;79.50;93527.34;1795870;78;21113;-81
2021/06/24 06:03:23;;;;;;;20.10;6.95;;;;;;;22.17;79.67;93526.12;1806561;78;21525;-79
2021/06/24 06:05:51;;;;;;;18.95;7.35;;;;;;;22.36;79.66;93524.05;1832348;78;21042;-79
2021/06/24 06:08:18;;;;;;;18.12;7.58;;;;;;;22.52;78.54;93522.27;1777674;79;21041;-76
2021/06/24 06:10:47;;;;;;;20.77;6.70;;;;;;;22.74;78.53;93529.55;1814726;77;20959;-78
2021/06/24 06:13:16;;;;;;;18.40;8.08;;;;;;;23.03;77.47;93528.32;1832464;78;21405;-77
2021/06/24 06:15:50;;;;;;;17.05;7.00;;;;;;;23.36;76.25;93524.70;1751674;80;21588;-77
2021/06/24 06:18:24;;;;;;;25.60;7.05;;;;;;;23.62;75.28;93521.37;1731987;78;21124;-77
2021/06/24 06:20:50;;;;;;;22.73;7.50;;;;;;;23.83;74.26;93521.66;1830751;78;21936;-78
2021/06/24 06:23:19;;;;;;;20.55;6.60;;;;;;;24.02;73.26;93524.25;1829568;78;21078;-78
2021/06/24 06:25:48;;;;;;;21.90;7.53;;;;;;;24.07;72.74;93520.20;1831837;77;20946;-79
2021/06/24 06:28:16;;;;;;;15.13;6.08;;;;;;;24.08;71.78;93520.33;1825017;76;20990;-77
2021/06/24 06:30:47;;;;;;;17.40;6.15;;;;;;;24.06;72.17;93510.31;1789271;77;21002;-78
2021/06/24 06:33:18;;;;;;;16.40;6.08;;;;;;;24.04;71.91;93510.66;1787245;77;21014;-77
2021/06/24 06:35:45;;;;;;;22.62;8.40;;;;;;;24.01;72.47;93508.22;1828422;76;20903;-79
2021/06/24 06:38:12;;;;;;;19.00;7.00;;;;;;;24.02;72.56;93510.37;1827546;76;20947;-78
2021/06/24 06:40:39;;;;;;;17.27;6.60;;;;;;;24.06;72.98;93512.33;1845334;76;21459;-78
2021/06/24 06:43:07;;;;;;;19.82;7.35;;;;;;;24.09;72.70;93512.77;1816857;77;21072;-78
2021/06/24 06:45:35;;;;;;;26.93;6.42;;;;;;;24.10;72.80;93503.94;1831722;77;22029;-77
2021/06/24 06:50:10;;;;;;;18.60;6.37;;;;;;;24.23;72.42;93498.09;1872397;76;22728;-77
2021/06/24 06:52:37;;;;;;;17.15;6.37;;;;;;;24.28;72.58;93504.98;1767685;77;20934;-78
2021/06/24 06:55:05;;;;;;;21.23;6.67;;;;;;;24.36;72.67;93502.70;1814259;75;21064;-79
2021/06/24 06:57:32;;;;;;;23.00;6.87;;;;;;;24.44;72.24;93497.55;1824359;76;21037;-79
2021/06/24 07:02:13;;;;;;;21.65;6.08;;;;;;;24.57;71.07;93499.39;1879116;76;22052;-77
2021/06/24 07:04:40;;;;;;;25.80;6.83;;;;;;;24.58;70.51;93505.71;1823059;77;21329;-76
2021/06/24 07:09:11;;;;;;;17.77;6.28;;;;;;;24.66;70.90;93492.94;1855300;75;23077;-76
2021/06/24 07:11:42;;;;;;;18.87;6.03;;;;;;;24.68;71.06;93498.78;1769855;79;21065;-76
2021/06/24 07:14:10;;;;;;;16.20;5.62;;;;;;;24.74;70.02;93491.27;1781062;80;21541;-76
2021/06/24 07:16:37;;;;;;;16.37;5.70;;;;;;;24.81;68.67;93497.05;1784293;80;20976;-78
2021/06/24 07:19:05;;;;;;;20.50;6.50;;;;;;;24.83;67.55;93487.61;1775717;78;20929;-77
2021/06/24 07:21:32;;;;;;;20.45;5.65;;;;;;;24.87;67.39;93488.94;1821795;78;20895;-76
2021/06/24 07:27:23;;;;;;;18.00;5.10;;;;;;;25.01;66.04;93482.39;1828846;77;21973;-77
2021/06/24 07:29:50;;;;;;;24.15;6.15;;;;;;;25.01;65.75;93478.22;1754935;80;21085;-77
2021/06/24 07:34:09;;;;;;;16.87;6.15;;;;;;;25.08;66.08;93477.80;1847353;76;24541;-80
2021/06/24 07:39:14;;;;;;;16.82;5.25;;;;;;;25.54;66.05;93475.08;1883782;76;22953;-79
2021/06/24 07:44:13;;;;;;;40.85;6.72;;;;;;;26.19;64.95;93475.30;1866073;75;21923;-77
2021/06/24 07:46:40;;;;;;;22.50;5.78;;;;;;;26.35;63.96;93473.25;1743167;78;21076;-76
2021/06/24 07:49:08;;;;;;;22.45;5.83;;;;;;;26.47;63.21;93476.28;1774842;79;21542;-77
2021/06/24 07:53:24;;;;;;;24.45;6.80;;;;;;;26.57;59.96;93472.67;1830954;77;23245;-78
2021/06/24 07:55:52;;;;;;;16.20;5.10;;;;;;;26.52;60.19;93476.20;1782572;78;22010;-77
2021/06/24 07:58:18;;;;;;;25.30;4.40;;;;;;;26.50;58.90;93474.53;1772387;80;21082;-78
2021/06/24 08:00:45;;;;;;;17.48;4.35;;;;;;;26.48;58.57;93465.88;1740862;80;21419;-77
2021/06/24 08:03:11;;;;;;;15.95;4.40;;;;;;;26.47;58.48;93465.76;1776637;77;21057;-78
2021/06/24 08:05:39;;;;;;;15.98;4.55;;;;;;;26.45;58.07;93465.48;1826264;77;21042;-79
2021/06/24 08:10:37;;;;;;;12.20;4.00;;;;;;;26.47;57.09;93462.97;1829992;77;22790;-78
2021/06/24 08:13:04;;;;;;;21.42;4.55;;;;;;;26.37;55.29;93464.55;1797428;76;21396;-78
2021/06/24 08:15:31;;;;;;;16.90;4.12;;;;;;;26.36;55.17;93465.02;1795751;79;21084;-78
2021/06/24 08:17:59;;;;;;;12.25;4.67;;;;;;;26.35;54.88;93467.05;1771655;79;21811;-78
2021/06/24 08:20:25;;;;;;;13.78;4.00;;;;;;;26.33;54.51;93467.43;1804301;79;21060;-78
2021/06/24 08:22:53;;;;;;;14.98;4.58;;;;;;;26.32;55.12;93461.70;1735323;82;21097;-78
2021/06/24 08:25:21;;;;;;;18.40;4.67;;;;;;;26.33;55.24;93461.86;1730894;81;21063;-77
2021/06/24 08:27:50;;;;;;;22.10;4.25;;;;;;;26.34;55.24;93465.53;1747035;79;21297;-77
2021/06/24 08:30:18;;;;;;;14.13;3.95;;;;;;;26.34;54.67;93467.55;1663732;84;20988;-77
2021/06/24 08:32:46;;;;;;;23.77;5.05;;;;;;;26.34;54.73;93463.38;1775116;78;20942;-78
2021/06/24 08:35:20;;;;;;;27.40;8.15;;;;;;;26.35;54.90;93460.71;1837651;77;20995;-78
2021/06/24 08:38:11;;;;;;;18.92;7.67;;;;;;;26.38;54.74;93459.09;1792466;78;21030;-76
2021/06/24 08:40:39;;;;;;;21.10;8.40;;;;;;;26.40;54.92;93460.77;1788855;77;21175;-77
2021/06/24 08:44:45;;;;;;;15.85;5.00;;;;;;;26.50;56.36;93455.02;1830757;76;22460;-78
2021/06/24 08:47:15;;;;;;;15.68;5.15;;;;;;;26.49;56.51;93457.05;1802069;79;21045;-78
2021/06/24 08:49:44;;;;;;;17.80;5.47;;;;;;;26.53;56.74;93452.63;1791521;78;21213;-79
2021/06/24 08:52:12;;;;;;;14.87;5.22;;;;;;;26.54;56.79;93454.91;1795372;78;21299;-77
2021/06/24 08:57:16;;;;;;;18.07;4.78;;;;;;;26.53;56.37;93445.66;1808281;77;22571;-78
2021/06/24 08:59:44;;;;;;;13.30;4.17;;;;;;;26.50;56.74;93450.83;1783669;78;20908;-77
2021/06/24 09:02:17;;;;;;;18.30;4.87;;;;;;;26.53;56.14;93449.20;1771076;78;21132;-77
2021/06/24 09:04:49;;;;;;;21.40;4.03;;;;;;;26.59;55.32;93448.63;1773499;79;21062;-76
2021/06/24 09:07:26;;;;;;;16.70;4.47;;;;;;;26.66;54.33;93448.00;1787791;78;21162;-77
2021/06/24 09:09:52;;;;;;;27.58;8.40;;;;;;;26.72;54.65;93448.17;1785585;78;21061;-78
2021/06/24 09:12:21;;;;;;;21.93;5.53;;;;;;;26.81;56.17;93451.38;1711472;80;21677;-77
2021/06/24 09:14:53;;;;;;;20.80;5.58;;;;;;;26.85;54.85;93449.11;1805746;77;22288;-78
2021/06/24 09:17:45;;;;;;;22.10;4.92;;;;;;;26.91;56.33;93450.55;1807660;78;20894;-78
2021/06/24 09:20:29;;;;;;;14.00;4.37;;;;;;;26.95;54.58;93450.44;1638886;84;21153;-78
2021/06/24 09:23:48;;;;;;;19.70;4.90;;;;;;;27.01;54.57;93444.89;1777666;77;21135;-78
2021/06/24 09:26:20;;;;;;;19.80;4.30;;;;;;;27.05;54.76;93437.80;1791405;78;21025;-78
2021/06/24 09:28:55;;;;;;;24.50;5.00;;;;;;;27.11;56.05;93443.42;1802658;78;21202;-78
2021/06/24 09:31:27;;;;;;;25.17;6.37;;;;;;;27.15;57.01;93448.13;1744046;78;21071;-78
2021/06/24 09:33:56;;;;;;;22.95;5.10;;;;;;;27.17;56.33;93442.81;1785915;77;21100;-77
2021/06/24 09:36:37;;;;;;;25.85;5.90;;;;;;;27.17;55.87;93451.19;1827352;77;21671;-77
2021/06/24 09:39:09;;;;;;;13.72;6.15;;;;;;;27.20;55.48;93446.64;1775144;78;21089;-78
2021/06/24 09:41:43;;;;;;;13.70;4.03;;;;;;;27.20;54.65;93447.41;1775084;79;21145;-78
2021/06/24 09:44:24;;;;;;;17.52;4.97;;;;;;;27.24;55.58;93443.73;1789829;78;21021;-78
2021/06/24 09:46:52;;;;;;;20.92;5.20;;;;;;;27.29;55.22;93446.41;1767995;79;21097;-78
2021/06/24 09:49:32;;;;;;;18.70;4.80;;;;;;;27.36;56.19;93441.09;1742577;79;21046;-78
2021/06/24 09:52:04;;;;;;;20.55;5.28;;;;;;;27.40;55.61;93437.30;1772952;77;21086;-78
2021/06/24 09:54:45;;;;;;;27.32;5.28;;;;;;;27.48;55.36;93431.36;1837108;77;21246;-78
2021/06/24 09:57:25;;;;;;;20.62;4.70;;;;;;;27.57;55.14;93432.53;1788592;78;21102;-78
2021/06/24 09:59:57;;;;;;;33.90;5.65;;;;;;;27.65;53.23;93432.80;1789684;77;21048;-76
2021/06/24 10:02:27;;;;;;;15.85;4.40;;;;;;;27.71;52.89;93437.73;1728383;81;21371;-77
2021/06/24 10:04:55;;;;;;;18.45;5.17;;;;;;;27.78;53.30;93433.84;1756436;79;21041;-78
2021/06/24 10:07:24;;;;;;;11.43;3.95;;;;;;;27.81;51.45;93432.08;1733322;78;21145;-80
2021/06/24 10:09:51;;;;;;;39.42;5.87;;;;;;;27.81;51.55;93427.88;1798275;78;21336;-79
2021/06/24 10:12:24;;;;;;;15.93;4.33;;;;;;;27.78;51.31;93431.05;1809945;77;21029;-80
2021/06/24 10:15:09;;;;;;;22.93;5.58;;;;;;;27.81;53.14;93424.45;1824984;78;21089;-78
2021/06/24 10:17:40;;;;;;;20.27;4.83;;;;;;;27.83;52.12;93417.73;1777943;78;21041;-78
2021/06/24 10:20:08;;;;;;;17.17;5.25;;;;;;;27.88;47.07;93419.64;1776915;79;21083;-79
2021/06/24 10:22:37;;;;;;;12.82;3.52;;;;;;;27.92;45.75;93427.12;1768718;78;21025;-78
2021/06/24 10:25:15;;;;;;;17.98;4.12;;;;;;;27.97;46.85;93426.36;1777036;77;21895;-81
2021/06/24 10:27:45;;;;;;;15.50;4.70;;;;;;;28.07;46.70;93429.80;1828746;77;21083;-80
2021/06/24 10:30:28;;;;;;;18.95;3.90;;;;;;;28.22;47.18;93431.57;1800549;77;21053;-81
2021/06/24 10:33:19;;;;;;;16.70;4.30;;;;;;;28.29;48.81;93431.81;1808982;76;21150;-81
2021/06/24 10:35:56;;;;;;;13.88;4.40;;;;;;;28.39;49.52;93430.17;1802982;76;20950;-81
2021/06/24 10:38:43;;;;;;;21.42;4.67;;;;;;;28.46;47.08;93419.22;1843200;76;21503;-79
2021/06/24 10:41:12;;;;;;;18.27;4.70;;;;;;;28.50;45.05;93418.33;1811830;77;21068;-81
2021/06/24 10:43:49;;;;;;;10.13;3.83;;;;;;;28.53;44.95;93424.30;1824308;75;21030;-81
2021/06/24 10:46:18;;;;;;;26.27;5.53;;;;;;;28.58;42.20;93422.00;1860422;75;21893;-80
2021/06/24 10:48:47;;;;;;;18.10;4.62;;;;;;;28.63;42.46;93416.41;1850287;76;21069;-82
2021/06/24 10:51:16;;;;;;;22.52;6.03;;;;;;;28.69;43.14;93419.17;1813904;76;21064;-81
2021/06/24 10:53:54;;;;;;;16.75;3.87;;;;;;;28.70;43.75;93419.32;1781321;78;21627;-78
2021/06/24 10:56:30;;;;;;;20.25;5.08;;;;;;;28.72;42.71;93422.34;1807739;78;21006;-80
2021/06/24 10:59:00;;;;;;;18.35;3.95;;;;;;;28.79;43.69;93419.03;1817488;76;21110;-84
2021/06/24 11:01:54;;;;;;;38.40;5.47;;;;;;;28.83;44.30;93413.92;1783534;78;21039;-80
2021/06/24 11:04:33;;;;;;;;;;;;;;;28.87;41.10;93413.66;1782857;79;21128;-81
2021/06/24 11:07:17;;;;;;;19.87;3.75;;;;;;;28.88;43.56;93408.94;1804875;78;20200;-80
2021/06/24 11:13:02;;;;;;;15.40;5.15;;;;;;;28.95;40.40;93414.00;1833225;77;21085;-82
2021/06/24 11:15:48;;;;;;;22.20;5.55;;;;;;;29.03;39.61;93405.21;1813493;77;21059;-81
2021/06/24 11:18:59;;;;;;;;;;;;;;;;;;;;;
2021/06/24 11:21:32;;;;;;;15.93;4.10;;;;;;;29.13;38.79;93404.94;1713398;79;21075;-79
2021/06/24 11:24:09;;;;;;;10.43;4.03;;;;;;;29.13;37.65;93412.69;1749275;79;21114;-80
2021/06/24 11:26:41;;;;;;;18.15;4.90;;;;;;;29.11;38.09;93410.27;1804523;78;21198;-80
2021/06/24 11:29:28;;;;;;;13.53;3.90;;;;;;;29.12;38.38;93413.97;1789422;78;21457;-80
2021/06/24 11:32:07;;;;;;;15.00;4.25;;;;;;;29.13;37.77;93403.53;1766939;78;21311;-82
2021/06/24 11:34:53;;;;;;;11.18;4.25;;;;;;;29.14;39.55;93400.84;1807719;77;21775;-80
2021/06/24 11:37:25;;;;;;;22.85;4.62;;;;;;;29.15;39.23;93393.34;1806051;77;21100;-78
2021/06/24 11:39:55;;;;;;;19.02;4.97;;;;;;;29.21;37.17;93396.11;1773161;78;21516;-79
2021/06/24 11:42:29;;;;;;;16.45;4.75;;;;;;;29.25;38.47;93401.55;1776066;78;21060;-82
2021/06/24 11:44:56;;;;;;;19.67;4.25;;;;;;;29.29;38.49;93386.63;1798195;78;21078;-81
2021/06/24 11:47:31;;;;;;;12.03;3.92;;;;;;;29.31;37.67;93383.33;1799118;78;21081;-81
2021/06/24 12:04:19;;;;;;;19.57;4.80;;;;;;;29.37;37.41;93374.88;1770582;78;21033;-77
2021/06/24 12:07:09;;;;;;;24.40;4.85;;;;;;;29.33;36.62;93382.80;1746902;78;21177;-77
2021/06/24 12:12:58;;;;;;;18.85;4.53;;;;;;;29.27;37.80;93381.45;1806120;77;21090;-84
2021/06/24 12:15:31;;;;;;;22.48;4.87;;;;;;;29.30;36.77;93381.81;1789487;79;21054;-78
2021/06/24 12:18:03;;;;;;;22.82;5.65;;;;;;;29.29;36.85;93379.63;1763376;79;21058;-81
2021/06/24 12:20:41;;;;;;;20.17;4.65;;;;;;;29.29;36.56;93389.44;1721673;79;22386;-83
2021/06/24 12:23:13;;;;;;;17.00;5.37;;;;;;;29.28;36.51;93390.72;1766283;79;20930;-79
2021/06/24 12:25:46;;;;;;;22.98;5.40;;;;;;;29.29;38.00;93385.87;1807622;77;20927;-78
2021/06/24 12:28:24;;;;;;;18.35;5.42;;;;;;;29.32;37.80;93385.49;1779096;79;21032;-80
2021/06/24 12:30:52;;;;;;;19.75;5.20;;;;;;;29.33;37.21;93382.16;1784318;79;20864;-78